sensor_id;sensor_type;location;lat;lon;timestamp;pressure;altitude;pressure_sealevel;temperature;humidity
43488;BME280;29078;41.932;25.554;2023-12-04T00:00:00;99988.88;;;9.48;69.86
43488;BME280;29078;41.932;25.554;2023-12-04T00:02:26;99997.75;;;9.47;70.31
43488;BME280;29078;41.932;25.554;2023-12-04T00:04:51;100010.94;;;9.47;70.18
43488;BME280;29078;41.932;25.554;2023-12-04T00:07:16;100026.59;;;9.48;70.70
43488;BME280;29078;41.932;25.554;2023-12-04T00:09:42;100023.78;;;9.50;70.19
43488;BME280;29078;41.932;25.554;2023-12-04T00:12:07;100007.81;;;9.51;70.17
43488;BME280;29078;41.932;25.554;2023-12-04T00:14:32;99999.75;;;9.53;70.51
43488;BME280;29078;41.932;25.554;2023-12-04T00:16:58;99984.75;;;9.53;70.08
43488;BME280;29078;41.932;25.554;2023-12-04T00:19:23;99977.03;;;9.52;70.28
43488;BME280;29078;41.932;25.554;2023-12-04T00:21:48;99991.31;;;9.41;70.66
43488;BME280;29078;41.932;25.554;2023-12-04T00:24:14;100011.06;;;9.37;70.80
43488;BME280;29078;41.932;25.554;2023-12-04T00:26:39;100011.69;;;9.31;70.87
43488;BME280;29078;41.932;25.554;2023-12-04T00:29:05;100016.66;;;9.34;70.89
43488;BME280;29078;41.932;25.554;2023-12-04T00:31:31;100032.00;;;9.39;70.64
43488;BME280;29078;41.932;25.554;2023-12-04T00:33:56;100043.03;;;9.42;71.03
43488;BME280;29078;41.932;25.554;2023-12-04T00:36:22;100033.31;;;9.43;71.21
43488;BME280;29078;41.932;25.554;2023-12-04T00:38:47;100049.97;;;9.43;70.73
43488;BME280;29078;41.932;25.554;2023-12-04T00:41:12;100060.16;;;9.38;70.32
43488;BME280;29078;41.932;25.554;2023-12-04T00:43:38;100055.50;;;9.32;70.98
43488;BME280;29078;41.932;25.554;2023-12-04T00:46:03;100052.88;;;9.32;70.69
43488;BME280;29078;41.932;25.554;2023-12-04T00:48:28;100059.97;;;9.32;71.20
43488;BME280;29078;41.932;25.554;2023-12-04T00:50:54;100067.72;;;9.33;70.71
43488;BME280;29078;41.932;25.554;2023-12-04T00:53:19;100061.09;;;9.29;70.58
43488;BME280;29078;41.932;25.554;2023-12-04T00:55:44;100076.91;;;9.29;70.56
43488;BME280;29078;41.932;25.554;2023-12-04T00:58:10;100071.59;;;9.21;70.83
43488;BME280;29078;41.932;25.554;2023-12-04T01:00:38;100060.22;;;9.20;70.93
43488;BME280;29078;41.932;25.554;2023-12-04T01:03:03;100060.06;;;9.22;70.64
43488;BME280;29078;41.932;25.554;2023-12-04T01:05:28;100068.09;;;9.12;71.07
43488;BME280;29078;41.932;25.554;2023-12-04T01:07:54;100074.66;;;9.08;70.94
43488;BME280;29078;41.932;25.554;2023-12-04T01:10:19;100068.03;;;9.04;70.60
43488;BME280;29078;41.932;25.554;2023-12-04T01:12:45;100074.13;;;9.05;71.18
43488;BME280;29078;41.932;25.554;2023-12-04T01:15:10;100073.31;;;9.04;71.38
43488;BME280;29078;41.932;25.554;2023-12-04T01:17:35;100088.97;;;9.06;70.63
43488;BME280;29078;41.932;25.554;2023-12-04T01:20:01;100118.91;;;9.05;70.96
43488;BME280;29078;41.932;25.554;2023-12-04T01:22:26;100120.56;;;9.06;70.21
43488;BME280;29078;41.932;25.554;2023-12-04T01:24:51;100103.41;;;9.02;70.34
43488;BME280;29078;41.932;25.554;2023-12-04T01:27:17;100084.00;;;9.03;70.46
43488;BME280;29078;41.932;25.554;2023-12-04T01:29:42;100093.56;;;9.04;70.46
43488;BME280;29078;41.932;25.554;2023-12-04T01:32:07;100089.28;;;9.03;70.62
43488;BME280;29078;41.932;25.554;2023-12-04T01:34:33;100085.13;;;9.00;70.47
43488;BME280;29078;41.932;25.554;2023-12-04T01:36:58;100088.53;;;8.93;70.54
43488;BME280;29078;41.932;25.554;2023-12-04T01:39:23;100091.75;;;8.86;70.24
43488;BME280;29078;41.932;25.554;2023-12-04T01:41:48;100100.47;;;8.87;70.25
43488;BME280;29078;41.932;25.554;2023-12-04T01:44:14;100093.34;;;8.79;70.11
43488;BME280;29078;41.932;25.554;2023-12-04T01:46:40;100091.03;;;8.76;70.50
43488;BME280;29078;41.932;25.554;2023-12-04T01:49:05;100079.75;;;8.66;71.07
43488;BME280;29078;41.932;25.554;2023-12-04T01:51:31;100085.69;;;8.68;70.51
43488;BME280;29078;41.932;25.554;2023-12-04T01:53:58;100099.53;;;8.70;70.25
43488;BME280;29078;41.932;25.554;2023-12-04T01:56:24;100096.75;;;8.72;70.27
43488;BME280;29078;41.932;25.554;2023-12-04T01:58:49;100088.69;;;8.73;70.31
43488;BME280;29078;41.932;25.554;2023-12-04T02:01:15;100091.13;;;8.67;69.94
43488;BME280;29078;41.932;25.554;2023-12-04T02:03:41;100111.44;;;8.56;70.57
43488;BME280;29078;41.932;25.554;2023-12-04T02:06:07;100123.59;;;8.57;70.32
43488;BME280;29078;41.932;25.554;2023-12-04T02:08:32;100134.00;;;8.59;70.46
43488;BME280;29078;41.932;25.554;2023-12-04T02:10:58;100129.69;;;8.58;70.36
43488;BME280;29078;41.932;25.554;2023-12-04T02:13:23;100120.00;;;8.58;70.25
43488;BME280;29078;41.932;25.554;2023-12-04T02:15:50;100133.09;;;8.50;69.77
43488;BME280;29078;41.932;25.554;2023-12-04T02:18:17;100144.53;;;8.32;69.98
43488;BME280;29078;41.932;25.554;2023-12-04T02:20:42;100128.00;;;8.21;70.33
43488;BME280;29078;41.932;25.554;2023-12-04T02:23:08;100119.03;;;8.14;70.03
43488;BME280;29078;41.932;25.554;2023-12-04T02:25:33;100125.38;;;8.21;70.03
43488;BME280;29078;41.932;25.554;2023-12-04T02:27:59;100122.59;;;8.23;69.84
43488;BME280;29078;41.932;25.554;2023-12-04T02:30:26;100133.78;;;8.25;69.76
43488;BME280;29078;41.932;25.554;2023-12-04T02:32:53;100136.56;;;8.23;69.87
43488;BME280;29078;41.932;25.554;2023-12-04T02:35:20;100157.63;;;8.23;69.65
43488;BME280;29078;41.932;25.554;2023-12-04T02:37:46;100140.19;;;8.22;69.65
43488;BME280;29078;41.932;25.554;2023-12-04T02:40:12;100129.81;;;8.21;69.62
43488;BME280;29078;41.932;25.554;2023-12-04T02:42:38;100129.38;;;8.16;69.26
43488;BME280;29078;41.932;25.554;2023-12-04T02:45:04;100137.56;;;8.13;69.31
43488;BME280;29078;41.932;25.554;2023-12-04T02:47:29;100150.84;;;8.21;69.51
43488;BME280;29078;41.932;25.554;2023-12-04T02:49:55;100143.63;;;8.23;69.62
43488;BME280;29078;41.932;25.554;2023-12-04T02:52:20;100152.06;;;8.26;69.79
43488;BME280;29078;41.932;25.554;2023-12-04T02:54:45;100160.09;;;8.25;68.77
43488;BME280;29078;41.932;25.554;2023-12-04T02:57:11;100149.13;;;8.29;68.74
43488;BME280;29078;41.932;25.554;2023-12-04T02:59:36;100151.34;;;8.34;69.19
43488;BME280;29078;41.932;25.554;2023-12-04T03:02:01;100146.09;;;8.34;68.74
43488;BME280;29078;41.932;25.554;2023-12-04T03:04:28;100148.97;;;8.31;68.36
43488;BME280;29078;41.932;25.554;2023-12-04T03:06:53;100154.53;;;8.28;68.07
43488;BME280;29078;41.932;25.554;2023-12-04T03:09:18;100168.00;;;8.25;68.84
43488;BME280;29078;41.932;25.554;2023-12-04T03:11:44;100158.44;;;8.24;68.35
43488;BME280;29078;41.932;25.554;2023-12-04T03:14:09;100154.53;;;8.28;68.87
43488;BME280;29078;41.932;25.554;2023-12-04T03:16:34;100169.50;;;8.27;68.71
43488;BME280;29078;41.932;25.554;2023-12-04T03:18:59;100168.66;;;8.27;69.00
43488;BME280;29078;41.932;25.554;2023-12-04T03:21:25;100165.75;;;8.30;68.91
43488;BME280;29078;41.932;25.554;2023-12-04T03:23:50;100153.72;;;8.27;68.53
43488;BME280;29078;41.932;25.554;2023-12-04T03:26:16;100156.63;;;8.24;68.39
43488;BME280;29078;41.932;25.554;2023-12-04T03:28:41;100148.50;;;8.18;67.68
43488;BME280;29078;41.932;25.554;2023-12-04T03:31:07;100146.97;;;8.15;68.37
43488;BME280;29078;41.932;25.554;2023-12-04T03:33:32;100137.72;;;8.11;68.34
43488;BME280;29078;41.932;25.554;2023-12-04T03:35:58;100152.63;;;7.93;67.25
43488;BME280;29078;41.932;25.554;2023-12-04T03:38:24;100146.56;;;7.92;67.31
43488;BME280;29078;41.932;25.554;2023-12-04T03:40:49;100163.16;;;7.93;67.80
43488;BME280;29078;41.932;25.554;2023-12-04T03:43:14;100171.47;;;7.88;67.14
43488;BME280;29078;41.932;25.554;2023-12-04T03:45:40;100181.25;;;7.96;68.48
43488;BME280;29078;41.932;25.554;2023-12-04T03:48:05;100188.75;;;7.91;67.84
43488;BME280;29078;41.932;25.554;2023-12-04T03:50:30;100194.03;;;7.91;67.83
43488;BME280;29078;41.932;25.554;2023-12-04T03:52:56;100196.66;;;7.91;67.73
43488;BME280;29078;41.932;25.554;2023-12-04T03:55:21;100211.16;;;7.95;67.69
43488;BME280;29078;41.932;25.554;2023-12-04T03:57:46;100218.25;;;7.85;67.03
43488;BME280;29078;41.932;25.554;2023-12-04T04:00:12;100227.16;;;7.74;67.05
43488;BME280;29078;41.932;25.554;2023-12-04T04:02:38;100240.00;;;7.77;66.61
43488;BME280;29078;41.932;25.554;2023-12-04T04:05:04;100240.69;;;7.79;66.91
43488;BME280;29078;41.932;25.554;2023-12-04T04:07:29;100238.63;;;7.73;66.56
43488;BME280;29078;41.932;25.554;2023-12-04T04:09:55;100239.59;;;7.72;66.65
43488;BME280;29078;41.932;25.554;2023-12-04T04:12:20;100237.66;;;7.74;66.71
43488;BME280;29078;41.932;25.554;2023-12-04T04:14:46;100223.41;;;7.77;67.37
43488;BME280;29078;41.932;25.554;2023-12-04T04:17:11;100224.94;;;7.70;66.16
43488;BME280;29078;41.932;25.554;2023-12-04T04:19:36;100223.97;;;7.71;67.12
43488;BME280;29078;41.932;25.554;2023-12-04T04:22:02;100221.50;;;7.69;67.30
43488;BME280;29078;41.932;25.554;2023-12-04T04:24:28;100220.94;;;7.65;67.14
43488;BME280;29078;41.932;25.554;2023-12-04T04:26:53;100223.59;;;7.65;67.24
43488;BME280;29078;41.932;25.554;2023-12-04T04:29:19;100216.66;;;7.64;68.03
43488;BME280;29078;41.932;25.554;2023-12-04T04:31:44;100227.03;;;7.66;67.80
43488;BME280;29078;41.932;25.554;2023-12-04T04:34:09;100232.88;;;7.50;65.94
43488;BME280;29078;41.932;25.554;2023-12-04T04:36:35;100238.00;;;7.52;67.31
43488;BME280;29078;41.932;25.554;2023-12-04T04:39:00;100245.06;;;7.51;66.88
43488;BME280;29078;41.932;25.554;2023-12-04T04:41:26;100246.59;;;7.44;66.03
43488;BME280;29078;41.932;25.554;2023-12-04T04:43:51;100252.25;;;7.30;66.78
43488;BME280;29078;41.932;25.554;2023-12-04T04:46:16;100266.91;;;7.32;67.21
43488;BME280;29078;41.932;25.554;2023-12-04T04:48:42;100271.03;;;7.35;66.51
43488;BME280;29078;41.932;25.554;2023-12-04T04:51:07;100266.34;;;7.39;67.35
43488;BME280;29078;41.932;25.554;2023-12-04T04:53:32;100266.34;;;7.39;66.85
43488;BME280;29078;41.932;25.554;2023-12-04T04:55:58;100264.53;;;7.39;66.61
43488;BME280;29078;41.932;25.554;2023-12-04T04:58:24;100255.81;;;7.39;66.45
43488;BME280;29078;41.932;25.554;2023-12-04T05:00:49;100272.44;;;7.29;66.14
43488;BME280;29078;41.932;25.554;2023-12-04T05:03:14;100274.09;;;7.30;67.45
43488;BME280;29078;41.932;25.554;2023-12-04T05:05:40;100282.09;;;7.29;66.15
43488;BME280;29078;41.932;25.554;2023-12-04T05:08:05;100282.78;;;7.31;66.88
43488;BME280;29078;41.932;25.554;2023-12-04T05:10:30;100282.09;;;7.29;66.90
43488;BME280;29078;41.932;25.554;2023-12-04T05:12:56;100288.31;;;7.28;66.50
43488;BME280;29078;41.932;25.554;2023-12-04T05:15:21;100296.34;;;7.26;66.31
43488;BME280;29078;41.932;25.554;2023-12-04T05:17:46;100299.38;;;7.22;66.91
43488;BME280;29078;41.932;25.554;2023-12-04T05:20:12;100301.03;;;7.13;66.26
43488;BME280;29078;41.932;25.554;2023-12-04T05:22:37;100306.00;;;7.07;66.47
43488;BME280;29078;41.932;25.554;2023-12-04T05:25:03;100306.69;;;7.09;66.36
43488;BME280;29078;41.932;25.554;2023-12-04T05:27:28;100301.44;;;7.09;67.00
43488;BME280;29078;41.932;25.554;2023-12-04T05:29:53;100308.38;;;7.10;66.50
43488;BME280;29078;41.932;25.554;2023-12-04T05:32:19;100307.81;;;7.06;66.39
43488;BME280;29078;41.932;25.554;2023-12-04T05:34:44;100309.19;;;7.10;66.89
43488;BME280;29078;41.932;25.554;2023-12-04T05:37:09;100311.97;;;7.09;65.83
43488;BME280;29078;41.932;25.554;2023-12-04T05:39:35;100311.97;;;7.09;66.82
43488;BME280;29078;41.932;25.554;2023-12-04T05:42:00;100312.94;;;7.08;66.62
43488;BME280;29078;41.932;25.554;2023-12-04T05:44:25;100310.16;;;7.09;66.56
43488;BME280;29078;41.932;25.554;2023-12-04T05:46:50;100314.72;;;7.07;66.09
43488;BME280;29078;41.932;25.554;2023-12-04T05:49:17;100323.69;;;7.05;66.87
43488;BME280;29078;41.932;25.554;2023-12-04T05:51:42;100333.09;;;6.97;65.95
43488;BME280;29078;41.932;25.554;2023-12-04T05:54:07;100330.31;;;6.89;66.14
43488;BME280;29078;41.932;25.554;2023-12-04T05:56:34;100326.84;;;6.89;66.85
43488;BME280;29078;41.932;25.554;2023-12-04T05:58:59;100324.78;;;6.92;67.26
43488;BME280;29078;41.932;25.554;2023-12-04T06:01:24;100321.31;;;6.92;66.86
43488;BME280;29078;41.932;25.554;2023-12-04T06:03:50;100322.28;;;6.91;66.33
43488;BME280;29078;41.932;25.554;2023-12-04T06:06:15;100319.25;;;6.95;67.11
43488;BME280;29078;41.932;25.554;2023-12-04T06:08:40;100332.53;;;6.94;66.22
43488;BME280;29078;41.932;25.554;2023-12-04T06:11:06;100334.19;;;6.95;66.32
43488;BME280;29078;41.932;25.554;2023-12-04T06:13:31;100342.06;;;6.95;66.62
43488;BME280;29078;41.932;25.554;2023-12-04T06:15:56;100341.09;;;6.96;66.58
43488;BME280;29078;41.932;25.554;2023-12-04T06:18:22;100340.56;;;7.02;66.43
43488;BME280;29078;41.932;25.554;2023-12-04T06:20:47;100337.78;;;7.04;66.65
43488;BME280;29078;41.932;25.554;2023-12-04T06:23:12;100344.16;;;7.01;66.38
43488;BME280;29078;41.932;25.554;2023-12-04T06:25:38;100349.94;;;7.05;65.88
43488;BME280;29078;41.932;25.554;2023-12-04T06:28:04;100357.00;;;7.04;66.21
43488;BME280;29078;41.932;25.554;2023-12-04T06:30:29;100358.94;;;7.02;65.54
43488;BME280;29078;41.932;25.554;2023-12-04T06:32:55;100366.13;;;7.00;65.84
43488;BME280;29078;41.932;25.554;2023-12-04T06:35:20;100369.00;;;6.97;65.33
43488;BME280;29078;41.932;25.554;2023-12-04T06:37:45;100376.19;;;6.95;65.80
43488;BME280;29078;41.932;25.554;2023-12-04T06:40:12;100373.56;;;6.95;66.28
43488;BME280;29078;41.932;25.554;2023-12-04T06:42:38;100368.88;;;6.98;66.11
43488;BME280;29078;41.932;25.554;2023-12-04T06:45:03;100377.44;;;7.00;66.19
43488;BME280;29078;41.932;25.554;2023-12-04T06:47:29;100375.53;;;7.03;66.28
43488;BME280;29078;41.932;25.554;2023-12-04T06:49:56;100381.72;;;7.01;66.22
43488;BME280;29078;41.932;25.554;2023-12-04T06:52:21;100384.50;;;7.10;66.77
43488;BME280;29078;41.932;25.554;2023-12-04T06:54:46;100393.22;;;7.10;66.66
43488;BME280;29078;41.932;25.554;2023-12-04T06:57:12;100399.31;;;7.11;65.92
43488;BME280;29078;41.932;25.554;2023-12-04T06:59:40;100394.06;;;7.11;65.49
43488;BME280;29078;41.932;25.554;2023-12-04T07:02:05;100400.69;;;7.15;66.11
43488;BME280;29078;41.932;25.554;2023-12-04T07:04:31;100390.19;;;7.15;65.48
43488;BME280;29078;41.932;25.554;2023-12-04T07:06:56;100400.16;;;7.21;65.50
43488;BME280;29078;41.932;25.554;2023-12-04T07:09:23;100415.66;;;7.24;65.44
43488;BME280;29078;41.932;25.554;2023-12-04T07:11:48;100410.66;;;7.21;65.32
43488;BME280;29078;41.932;25.554;2023-12-04T07:14:13;100421.72;;;7.24;65.48
43488;BME280;29078;41.932;25.554;2023-12-04T07:16:40;100426.56;;;7.29;65.48
43488;BME280;29078;41.932;25.554;2023-12-04T07:19:06;100418.97;;;7.26;64.84
43488;BME280;29078;41.932;25.554;2023-12-04T07:21:31;100418.41;;;7.22;63.99
43488;BME280;29078;41.932;25.554;2023-12-04T07:23:56;100419.50;;;7.20;64.63
43488;BME280;29078;41.932;25.554;2023-12-04T07:26:21;100420.75;;;7.16;64.22
43488;BME280;29078;41.932;25.554;2023-12-04T07:28:47;100411.75;;;7.18;65.09
43488;BME280;29078;41.932;25.554;2023-12-04T07:31:12;100417.97;;;7.17;62.36
43488;BME280;29078;41.932;25.554;2023-12-04T07:33:37;100448.00;;;7.24;62.42
43488;BME280;29078;41.932;25.554;2023-12-04T07:36:03;100417.16;;;7.26;63.26
43488;BME280;29078;41.932;25.554;2023-12-04T07:38:28;100426.44;;;7.30;64.13
43488;BME280;29078;41.932;25.554;2023-12-04T07:40:54;100430.88;;;7.30;62.10
43488;BME280;29078;41.932;25.554;2023-12-04T07:43:19;100430.13;;;7.09;63.83
43488;BME280;29078;41.932;25.554;2023-12-04T07:45:44;100433.97;;;7.05;61.94
43488;BME280;29078;41.932;25.554;2023-12-04T07:48:09;100436.34;;;7.08;62.07
43488;BME280;29078;41.932;25.554;2023-12-04T07:50:35;100438.16;;;7.17;63.94
43488;BME280;29078;41.932;25.554;2023-12-04T07:53:02;100439.13;;;7.16;62.61
43488;BME280;29078;41.932;25.554;2023-12-04T07:55:28;100448.00;;;7.24;62.33
43488;BME280;29078;41.932;25.554;2023-12-04T07:57:54;100448.72;;;7.36;62.48
43488;BME280;29078;41.932;25.554;2023-12-04T08:00:21;100446.63;;;7.40;63.06
43488;BME280;29078;41.932;25.554;2023-12-04T08:02:47;100448.88;;;7.44;61.12
43488;BME280;29078;41.932;25.554;2023-12-04T08:05:13;100449.72;;;7.45;61.36
43488;BME280;29078;41.932;25.554;2023-12-04T08:07:38;100450.50;;;7.36;60.12
43488;BME280;29078;41.932;25.554;2023-12-04T08:10:04;100451.75;;;7.31;59.35
43488;BME280;29078;41.932;25.554;2023-12-04T08:12:29;100459.22;;;7.36;61.60
43488;BME280;29078;41.932;25.554;2023-12-04T08:14:55;100457.13;;;7.30;60.92
43488;BME280;29078;41.932;25.554;2023-12-04T08:17:20;100459.63;;;7.31;61.51
43488;BME280;29078;41.932;25.554;2023-12-04T08:19:45;100459.06;;;7.28;61.56
43488;BME280;29078;41.932;25.554;2023-12-04T08:22:11;100459.19;;;7.26;61.45
43488;BME280;29078;41.932;25.554;2023-12-04T08:24:36;100455.75;;;7.26;61.08
43488;BME280;29078;41.932;25.554;2023-12-04T08:27:02;100470.41;;;7.28;60.39
43488;BME280;29078;41.932;25.554;2023-12-04T08:29:27;100462.22;;;7.22;58.93
43488;BME280;29078;41.932;25.554;2023-12-04T08:31:52;100461.81;;;7.26;61.19
43488;BME280;29078;41.932;25.554;2023-12-04T08:34:18;100452.41;;;7.24;60.83
43488;BME280;29078;41.932;25.554;2023-12-04T08:36:43;100459.31;;;7.25;60.24
43488;BME280;29078;41.932;25.554;2023-12-04T08:39:08;100455.75;;;7.26;60.16
43488;BME280;29078;41.932;25.554;2023-12-04T08:41:34;100457.41;;;7.27;61.68
43488;BME280;29078;41.932;25.554;2023-12-04T08:43:59;100451.44;;;7.25;60.93
43488;BME280;29078;41.932;25.554;2023-12-04T08:46:24;100456.00;;;7.23;59.86
43488;BME280;29078;41.932;25.554;2023-12-04T08:48:50;100452.41;;;7.24;61.13
43488;BME280;29078;41.932;25.554;2023-12-04T08:51:15;100449.34;;;7.19;59.98
43488;BME280;29078;41.932;25.554;2023-12-04T08:53:41;100455.03;;;7.24;61.18
43488;BME280;29078;41.932;25.554;2023-12-04T08:56:07;100454.34;;;7.22;59.59
43488;BME280;29078;41.932;25.554;2023-12-04T08:58:33;100449.50;;;7.27;60.58
43488;BME280;29078;41.932;25.554;2023-12-04T09:00:58;100453.66;;;7.29;60.98
43488;BME280;29078;41.932;25.554;2023-12-04T09:03:23;100449.50;;;7.27;60.52
43488;BME280;29078;41.932;25.554;2023-12-04T09:05:49;100443.97;;;7.20;59.94
43488;BME280;29078;41.932;25.554;2023-12-04T09:08:16;100442.44;;;7.18;59.53
43488;BME280;29078;41.932;25.554;2023-12-04T09:10:42;100449.22;;;7.20;61.49
43488;BME280;29078;41.932;25.554;2023-12-04T09:13:07;100449.91;;;7.22;60.86
43488;BME280;29078;41.932;25.554;2023-12-04T09:15:33;100445.94;;;7.28;61.77
43488;BME280;29078;41.932;25.554;2023-12-04T09:17:58;100436.66;;;7.24;59.47
43488;BME280;29078;41.932;25.554;2023-12-04T09:20:24;100427.81;;;7.25;59.81
43488;BME280;29078;41.932;25.554;2023-12-04T09:22:50;100433.47;;;7.20;59.38
43488;BME280;29078;41.932;25.554;2023-12-04T09:25:16;100430.81;;;7.11;59.87
43488;BME280;29078;41.932;25.554;2023-12-04T09:27:41;100437.59;;;7.13;60.75
43488;BME280;29078;41.932;25.554;2023-12-04T09:30:06;100437.31;;;7.16;60.88
43488;BME280;29078;41.932;25.554;2023-12-04T09:32:32;100440.66;;;7.18;59.98
43488;BME280;29078;41.932;25.554;2023-12-04T09:34:57;100433.31;;;7.12;61.46
43488;BME280;29078;41.932;25.554;2023-12-04T09:37:23;100435.09;;;7.12;61.82
43488;BME280;29078;41.932;25.554;2023-12-04T09:39:49;100438.56;;;7.12;61.37
43488;BME280;29078;41.932;25.554;2023-12-04T09:42:15;100431.50;;;7.13;61.35
43488;BME280;29078;41.932;25.554;2023-12-04T09:44:43;100435.25;;;7.10;60.28
43488;BME280;29078;41.932;25.554;2023-12-04T09:47:09;100429.69;;;7.04;61.53
43488;BME280;29078;41.932;25.554;2023-12-04T09:49:35;100427.88;;;6.94;60.89
43488;BME280;29078;41.932;25.554;2023-12-04T09:52:01;100428.56;;;6.96;61.15
43488;BME280;29078;41.932;25.554;2023-12-04T09:54:27;100441.69;;;6.96;61.35
43488;BME280;29078;41.932;25.554;2023-12-04T09:56:54;100441.84;;;7.05;61.47
43488;BME280;29078;41.932;25.554;2023-12-04T09:59:20;100433.84;;;7.06;58.81
43488;BME280;29078;41.932;25.554;2023-12-04T10:01:47;100434.41;;;7.10;61.56
43488;BME280;29078;41.932;25.554;2023-12-04T10:04:13;100425.16;;;7.15;61.42
43488;BME280;29078;41.932;25.554;2023-12-04T10:06:38;100430.00;;;7.20;60.63
43488;BME280;29078;41.932;25.554;2023-12-04T10:09:04;100434.16;;;7.22;61.85
43488;BME280;29078;41.932;25.554;2023-12-04T10:11:29;100431.25;;;7.16;60.92
43488;BME280;29078;41.932;25.554;2023-12-04T10:13:55;100427.66;;;7.17;60.69
43488;BME280;29078;41.932;25.554;2023-12-04T10:16:36;100424.88;;;7.18;61.25
43488;BME280;29078;41.932;25.554;2023-12-04T10:19:18;100413.16;;;7.22;61.62
43488;BME280;29078;41.932;25.554;2023-12-04T10:21:47;100420.31;;;7.11;61.10
43488;BME280;29078;41.932;25.554;2023-12-04T10:24:26;100424.16;;;7.07;61.33
43488;BME280;29078;41.932;25.554;2023-12-04T10:26:52;100419.47;;;7.00;61.40
43488;BME280;29078;41.932;25.554;2023-12-04T10:29:17;100423.75;;;7.01;61.62
43488;BME280;29078;41.932;25.554;2023-12-04T10:31:43;100432.34;;;7.13;62.31
43488;BME280;29078;41.932;25.554;2023-12-04T10:34:08;100422.53;;;7.15;62.24
43488;BME280;29078;41.932;25.554;2023-12-04T10:36:35;100424.34;;;7.24;62.29
43488;BME280;29078;41.932;25.554;2023-12-04T10:39:01;100427.13;;;7.32;61.79
43488;BME280;29078;41.932;25.554;2023-12-04T10:41:29;100430.19;;;7.38;61.96
43488;BME280;29078;41.932;25.554;2023-12-04T10:43:55;100313.09;;;6.66;61.61
43488;BME280;29078;41.932;25.554;2023-12-04T10:46:21;100429.78;;;7.42;61.98
43488;BME280;29078;41.932;25.554;2023-12-04T10:48:47;100435.63;;;7.46;62.23
43488;BME280;29078;41.932;25.554;2023-12-04T10:51:12;100429.53;;;7.45;61.46
43488;BME280;29078;41.932;25.554;2023-12-04T10:53:38;100438.91;;;7.38;62.59
43488;BME280;29078;41.932;25.554;2023-12-04T10:56:09;100435.88;;;7.43;61.83
43488;BME280;29078;41.932;25.554;2023-12-04T10:58:36;100443.22;;;7.49;62.61
43488;BME280;29078;41.932;25.554;2023-12-04T11:01:04;100443.09;;;7.50;62.53
43488;BME280;29078;41.932;25.554;2023-12-04T11:03:38;100446.28;;;7.54;61.92
43488;BME280;29078;41.932;25.554;2023-12-04T11:06:06;100441.31;;;7.60;62.30
43488;BME280;29078;41.932;25.554;2023-12-04T11:08:33;100433.41;;;7.60;62.09
43488;BME280;29078;41.932;25.554;2023-12-04T11:10:59;100438.41;;;7.63;62.42
43488;BME280;29078;41.932;25.554;2023-12-04T11:13:28;100447.53;;;7.59;61.61
43488;BME280;29078;41.932;25.554;2023-12-04T11:16:02;100446.13;;;7.55;62.36
43488;BME280;29078;41.932;25.554;2023-12-04T11:18:34;100441.03;;;7.54;62.28
43488;BME280;29078;41.932;25.554;2023-12-04T11:21:11;100445.31;;;7.55;62.38
43488;BME280;29078;41.932;25.554;2023-12-04T11:23:37;100449.03;;;7.52;62.38
43488;BME280;29078;41.932;25.554;2023-12-04T11:26:03;100445.72;;;7.50;62.85
43488;BME280;29078;41.932;25.554;2023-12-04T11:28:30;100442.53;;;7.47;62.53
43488;BME280;29078;41.932;25.554;2023-12-04T11:30:56;100436.88;;;7.51;62.11
43488;BME280;29078;41.932;25.554;2023-12-04T11:33:22;100435.91;;;7.52;62.39
43488;BME280;29078;41.932;25.554;2023-12-04T11:35:49;100438.00;;;7.58;62.14
43488;BME280;29078;41.932;25.554;2023-12-04T11:38:16;100437.31;;;7.66;62.67
43488;BME280;29078;41.932;25.554;2023-12-04T11:40:41;100436.75;;;7.72;62.61
43488;BME280;29078;41.932;25.554;2023-12-04T11:43:25;100437.16;;;7.77;61.80
43488;BME280;29078;41.932;25.554;2023-12-04T11:45:51;100438.81;;;7.88;62.29
43488;BME280;29078;41.932;25.554;2023-12-04T11:48:16;100427.47;;;7.87;61.42
43488;BME280;29078;41.932;25.554;2023-12-04T11:50:44;100427.06;;;7.92;61.73
43488;BME280;29078;41.932;25.554;2023-12-04T11:53:10;100432.47;;;7.90;59.79
43488;BME280;29078;41.932;25.554;2023-12-04T11:55:39;100430.78;;;7.89;60.64
43488;BME280;29078;41.932;25.554;2023-12-04T11:58:08;100439.66;;;7.88;60.47
43488;BME280;29078;41.932;25.554;2023-12-04T12:00:34;100440.75;;;7.95;61.63
43488;BME280;29078;41.932;25.554;2023-12-04T12:03:01;100444.50;;;7.93;60.57
43488;BME280;29078;41.932;25.554;2023-12-04T12:05:27;100444.34;;;7.94;61.04
43488;BME280;29078;41.932;25.554;2023-12-04T12:07:53;100446.56;;;7.99;61.02
43488;BME280;29078;41.932;25.554;2023-12-04T12:10:19;100441.31;;;7.99;60.83
43488;BME280;29078;41.932;25.554;2023-12-04T12:12:45;100428.16;;;7.99;60.95
43488;BME280;29078;41.932;25.554;2023-12-04T12:15:12;100437.84;;;7.98;59.29
43488;BME280;29078;41.932;25.554;2023-12-04T12:17:38;100434.38;;;7.98;60.51
43488;BME280;29078;41.932;25.554;2023-12-04T12:20:11;100433.28;;;7.91;60.09
43488;BME280;29078;41.932;25.554;2023-12-04T12:22:37;100433.84;;;7.94;60.34
43488;BME280;29078;41.932;25.554;2023-12-04T12:25:06;100428.31;;;7.97;59.99
43488;BME280;29078;41.932;25.554;2023-12-04T12:27:32;100437.44;;;8.03;59.78
43488;BME280;29078;41.932;25.554;2023-12-04T12:29:57;100434.81;;;8.03;60.57
43488;BME280;29078;41.932;25.554;2023-12-04T12:32:22;100433.69;;;7.96;60.23
43488;BME280;29078;41.932;25.554;2023-12-04T12:34:48;100430.38;;;7.94;59.98
43488;BME280;29078;41.932;25.554;2023-12-04T12:37:13;100437.84;;;7.89;59.53
43488;BME280;29078;41.932;25.554;2023-12-04T12:39:39;100431.91;;;7.87;59.75
43488;BME280;29078;41.932;25.554;2023-12-04T12:42:05;100434.94;;;7.82;60.63